sensor_id;sensor_type;location;lat;lon;timestamp;temperature;humidity
9998;DHT22;5038;53.064;8.624;2022-07-22T00:01:54;17.80;99.90
9998;DHT22;5038;53.064;8.624;2022-07-22T00:04:23;17.80;99.90
9998;DHT22;5038;53.064;8.624;2022-07-22T00:06:51;17.80;99.90
9998;DHT22;5038;53.064;8.624;2022-07-22T00:09:23;17.70;99.90
9998;DHT22;5038;53.064;8.624;2022-07-22T00:11:53;17.70;99.90
9998;DHT22;5038;53.064;8.624;2022-07-22T00:14:22;17.70;99.90
9998;DHT22;5038;53.064;8.624;2022-07-22T00:16:50;17.70;99.90
9998;DHT22;5038;53.064;8.624;2022-07-22T00:19:19;17.70;99.90
9998;DHT22;5038;53.064;8.624;2022-07-22T00:21:47;17.70;99.90
9998;DHT22;5038;53.064;8.624;2022-07-22T00:24:15;17.70;99.90
9998;DHT22;5038;53.064;8.624;2022-07-22T00:26:44;17.70;99.90
9998;DHT22;5038;53.064;8.624;2022-07-22T00:29:14;17.60;99.90
9998;DHT22;5038;53.064;8.624;2022-07-22T00:31:42;17.60;99.90
9998;DHT22;5038;53.064;8.624;2022-07-22T00:34:10;17.60;99.90
9998;DHT22;5038;53.064;8.624;2022-07-22T00:36:38;17.60;99.90
9998;DHT22;5038;53.064;8.624;2022-07-22T00:39:07;17.60;99.90
9998;DHT22;5038;53.064;8.624;2022-07-22T00:41:35;17.50;99.90
9998;DHT22;5038;53.064;8.624;2022-07-22T00:44:05;17.50;99.90
9998;DHT22;5038;53.064;8.624;2022-07-22T00:46:37;17.50;99.90
9998;DHT22;5038;53.064;8.624;2022-07-22T00:49:07;17.50;99.90
9998;DHT22;5038;53.064;8.624;2022-07-22T00:51:36;17.40;99.90
9998;DHT22;5038;53.064;8.624;2022-07-22T00:54:06;17.50;99.90
9998;DHT22;5038;53.064;8.624;2022-07-22T00:56:35;17.40;99.90
9998;DHT22;5038;53.064;8.624;2022-07-22T00:59:07;17.40;99.90
9998;DHT22;5038;53.064;8.624;2022-07-22T01:01:37;17.30;99.90
9998;DHT22;5038;53.064;8.624;2022-07-22T01:04:06;17.30;99.90
9998;DHT22;5038;53.064;8.624;2022-07-22T01:06:35;17.30;99.90
9998;DHT22;5038;53.064;8.624;2022-07-22T01:09:03;17.30;99.90
9998;DHT22;5038;53.064;8.624;2022-07-22T01:11:32;17.30;99.90
9998;DHT22;5038;53.064;8.624;2022-07-22T01:14:00;17.30;99.90
9998;DHT22;5038;53.064;8.624;2022-07-22T01:16:30;17.30;99.90
9998;DHT22;5038;53.064;8.624;2022-07-22T01:18:59;17.30;99.90
9998;DHT22;5038;53.064;8.624;2022-07-22T01:21:29;17.30;99.90
9998;DHT22;5038;53.064;8.624;2022-07-22T01:23:58;17.20;99.90
9998;DHT22;5038;53.064;8.624;2022-07-22T01:26:26;17.20;99.90
9998;DHT22;5038;53.064;8.624;2022-07-22T01:28:55;17.20;99.90
9998;DHT22;5038;53.064;8.624;2022-07-22T01:31:24;17.20;99.90
9998;DHT22;5038;53.064;8.624;2022-07-22T01:33:53;17.10;99.90
9998;DHT22;5038;53.064;8.624;2022-07-22T01:36:22;17.10;99.90
9998;DHT22;5038;53.064;8.624;2022-07-22T01:38:52;17.10;99.90
9998;DHT22;5038;53.064;8.624;2022-07-22T01:41:21;17.10;99.90
9998;DHT22;5038;53.064;8.624;2022-07-22T01:43:49;17.10;99.90
9998;DHT22;5038;53.064;8.624;2022-07-22T01:46:17;17.00;99.90
9998;DHT22;5038;53.064;8.624;2022-07-22T01:48:47;17.00;99.90
9998;DHT22;5038;53.064;8.624;2022-07-22T01:51:15;17.00;99.90
9998;DHT22;5038;53.064;8.624;2022-07-22T01:53:43;16.90;99.90
9998;DHT22;5038;53.064;8.624;2022-07-22T01:56:13;16.90;99.90
9998;DHT22;5038;53.064;8.624;2022-07-22T01:58:48;16.90;99.90
9998;DHT22;5038;53.064;8.624;2022-07-22T02:01:21;16.90;99.90
9998;DHT22;5038;53.064;8.624;2022-07-22T02:03:52;16.80;99.90
9998;DHT22;5038;53.064;8.624;2022-07-22T02:06:21;16.90;99.90
9998;DHT22;5038;53.064;8.624;2022-07-22T02:08:51;16.80;99.90
9998;DHT22;5038;53.064;8.624;2022-07-22T02:11:35;16.80;99.90
9998;DHT22;5038;53.064;8.624;2022-07-22T02:14:05;16.80;99.90
9998;DHT22;5038;53.064;8.624;2022-07-22T02:16:33;16.80;99.90
9998;DHT22;5038;53.064;8.624;2022-07-22T02:19:05;16.80;99.90
9998;DHT22;5038;53.064;8.624;2022-07-22T02:21:33;16.80;99.90
9998;DHT22;5038;53.064;8.624;2022-07-22T02:24:02;16.80;99.90
9998;DHT22;5038;53.064;8.624;2022-07-22T02:26:30;16.80;99.90
9998;DHT22;5038;53.064;8.624;2022-07-22T02:29:01;16.80;99.90
9998;DHT22;5038;53.064;8.624;2022-07-22T02:31:30;16.80;99.90
9998;DHT22;5038;53.064;8.624;2022-07-22T02:33:58;16.80;99.90
9998;DHT22;5038;53.064;8.624;2022-07-22T02:36:28;16.80;99.90
9998;DHT22;5038;53.064;8.624;2022-07-22T02:38:57;16.80;99.90
9998;DHT22;5038;53.064;8.624;2022-07-22T02:41:27;16.80;99.90
9998;DHT22;5038;53.064;8.624;2022-07-22T02:43:57;16.80;99.90
9998;DHT22;5038;53.064;8.624;2022-07-22T02:46:27;16.70;99.90
9998;DHT22;5038;53.064;8.624;2022-07-22T02:49:03;16.70;99.90
9998;DHT22;5038;53.064;8.624;2022-07-22T02:51:32;16.70;99.90
9998;DHT22;5038;53.064;8.624;2022-07-22T02:54:00;16.70;99.90
9998;DHT22;5038;53.064;8.624;2022-07-22T02:56:28;16.70;99.90
9998;DHT22;5038;53.064;8.624;2022-07-22T02:58:57;16.70;99.90
9998;DHT22;5038;53.064;8.624;2022-07-22T03:01:27;16.70;99.90
9998;DHT22;5038;53.064;8.624;2022-07-22T03:03:59;16.70;99.90
9998;DHT22;5038;53.064;8.624;2022-07-22T03:06:30;16.70;99.90
9998;DHT22;5038;53.064;8.624;2022-07-22T03:09:03;16.70;99.90
9998;DHT22;5038;53.064;8.624;2022-07-22T03:11:34;16.70;99.90
9998;DHT22;5038;53.064;8.624;2022-07-22T03:14:03;16.70;99.90
9998;DHT22;5038;53.064;8.624;2022-07-22T03:16:33;16.70;99.90
9998;DHT22;5038;53.064;8.624;2022-07-22T03:19:02;16.60;99.90
9998;DHT22;5038;53.064;8.624;2022-07-22T03:21:31;16.70;99.90
9998;DHT22;5038;53.064;8.624;2022-07-22T03:24:00;16.70;99.90
9998;DHT22;5038;53.064;8.624;2022-07-22T03:26:31;16.70;99.90
9998;DHT22;5038;53.064;8.624;2022-07-22T03:28:59;16.70;99.90
9998;DHT22;5038;53.064;8.624;2022-07-22T03:31:28;16.70;99.90
9998;DHT22;5038;53.064;8.624;2022-07-22T03:33:58;16.70;99.90
9998;DHT22;5038;53.064;8.624;2022-07-22T03:36:33;16.70;99.90
9998;DHT22;5038;53.064;8.624;2022-07-22T03:39:02;16.70;99.90
9998;DHT22;5038;53.064;8.624;2022-07-22T03:41:30;16.70;99.90
9998;DHT22;5038;53.064;8.624;2022-07-22T03:43:58;16.70;99.90
9998;DHT22;5038;53.064;8.624;2022-07-22T03:46:27;16.70;99.90
9998;DHT22;5038;53.064;8.624;2022-07-22T03:48:55;16.70;99.90
9998;DHT22;5038;53.064;8.624;2022-07-22T03:51:26;16.70;99.90
9998;DHT22;5038;53.064;8.624;2022-07-22T03:54:00;16.60;99.90
9998;DHT22;5038;53.064;8.624;2022-07-22T03:56:29;16.60;99.90
9998;DHT22;5038;53.064;8.624;2022-07-22T03:58:57;16.60;99.90
9998;DHT22;5038;53.064;8.624;2022-07-22T04:01:26;16.60;99.90
9998;DHT22;5038;53.064;8.624;2022-07-22T04:03:55;16.60;99.90
9998;DHT22;5038;53.064;8.624;2022-07-22T04:06:36;16.60;99.90
9998;DHT22;5038;53.064;8.624;2022-07-22T04:09:10;16.60;99.90
9998;DHT22;5038;53.064;8.624;2022-07-22T04:11:39;16.60;99.90
9998;DHT22;5038;53.064;8.624;2022-07-22T04:14:09;16.60;99.90
9998;DHT22;5038;53.064;8.624;2022-07-22T04:16:37;16.60;99.90
9998;DHT22;5038;53.064;8.624;2022-07-22T04:19:09;16.60;99.90
9998;DHT22;5038;53.064;8.624;2022-07-22T04:21:48;16.60;99.90
9998;DHT22;5038;53.064;8.624;2022-07-22T04:24:19;16.60;99.90
9998;DHT22;5038;53.064;8.624;2022-07-22T04:26:48;16.70;99.90
9998;DHT22;5038;53.064;8.624;2022-07-22T04:29:16;16.70;99.90
9998;DHT22;5038;53.064;8.624;2022-07-22T04:31:45;16.70;99.90
9998;DHT22;5038;53.064;8.624;2022-07-22T04:34:16;16.70;99.90
9998;DHT22;5038;53.064;8.624;2022-07-22T04:36:48;16.70;99.90
9998;DHT22;5038;53.064;8.624;2022-07-22T04:39:17;16.70;99.90
9998;DHT22;5038;53.064;8.624;2022-07-22T04:41:53;16.70;99.90
9998;DHT22;5038;53.064;8.624;2022-07-22T04:44:22;16.70;99.90
9998;DHT22;5038;53.064;8.624;2022-07-22T04:46:51;16.70;99.90
9998;DHT22;5038;53.064;8.624;2022-07-22T04:49:19;16.70;99.90
9998;DHT22;5038;53.064;8.624;2022-07-22T04:51:49;16.70;99.90
9998;DHT22;5038;53.064;8.624;2022-07-22T04:54:27;16.70;99.90
9998;DHT22;5038;53.064;8.624;2022-07-22T04:56:57;16.70;99.90
9998;DHT22;5038;53.064;8.624;2022-07-22T04:59:26;16.70;99.90
9998;DHT22;5038;53.064;8.624;2022-07-22T05:01:54;16.70;99.90
9998;DHT22;5038;53.064;8.624;2022-07-22T05:04:23;16.70;99.90
9998;DHT22;5038;53.064;8.624;2022-07-22T05:06:53;16.70;99.90
9998;DHT22;5038;53.064;8.624;2022-07-22T05:09:22;16.80;99.90
9998;DHT22;5038;53.064;8.624;2022-07-22T05:11:50;16.80;99.90
9998;DHT22;5038;53.064;8.624;2022-07-22T05:14:22;16.80;99.90
9998;DHT22;5038;53.064;8.624;2022-07-22T05:16:50;16.80;99.90
9998;DHT22;5038;53.064;8.624;2022-07-22T05:19:19;16.80;99.90
9998;DHT22;5038;53.064;8.624;2022-07-22T05:21:47;16.70;99.90
9998;DHT22;5038;53.064;8.624;2022-07-22T05:24:16;16.80;99.90
9998;DHT22;5038;53.064;8.624;2022-07-22T05:26:45;16.80;99.90
9998;DHT22;5038;53.064;8.624;2022-07-22T05:29:14;16.80;99.90
9998;DHT22;5038;53.064;8.624;2022-07-22T05:31:42;16.90;99.90
9998;DHT22;5038;53.064;8.624;2022-07-22T05:34:10;16.90;99.90
9998;DHT22;5038;53.064;8.624;2022-07-22T05:36:43;16.90;99.90
9998;DHT22;5038;53.064;8.624;2022-07-22T05:39:13;16.90;99.90
9998;DHT22;5038;53.064;8.624;2022-07-22T05:41:43;16.90;99.90
9998;DHT22;5038;53.064;8.624;2022-07-22T05:44:11;16.90;99.90
9998;DHT22;5038;53.064;8.624;2022-07-22T05:46:40;17.00;99.90
9998;DHT22;5038;53.064;8.624;2022-07-22T05:49:09;17.00;99.90
9998;DHT22;5038;53.064;8.624;2022-07-22T05:51:50;17.00;99.90
9998;DHT22;5038;53.064;8.624;2022-07-22T05:54:20;17.10;99.90
9998;DHT22;5038;53.064;8.624;2022-07-22T05:56:52;17.10;99.90
9998;DHT22;5038;53.064;8.624;2022-07-22T05:59:20;17.10;99.90
9998;DHT22;5038;53.064;8.624;2022-07-22T06:01:48;17.20;99.90
9998;DHT22;5038;53.064;8.624;2022-07-22T06:04:36;17.20;99.90
9998;DHT22;5038;53.064;8.624;2022-07-22T06:07:04;17.20;99.90
9998;DHT22;5038;53.064;8.624;2022-07-22T06:09:33;17.20;99.90
9998;DHT22;5038;53.064;8.624;2022-07-22T06:12:04;17.20;99.90
9998;DHT22;5038;53.064;8.624;2022-07-22T06:14:32;17.30;99.90
9998;DHT22;5038;53.064;8.624;2022-07-22T06:17:03;17.30;99.90
9998;DHT22;5038;53.064;8.624;2022-07-22T06:19:33;17.30;99.90
9998;DHT22;5038;53.064;8.624;2022-07-22T06:22:01;17.30;99.90
9998;DHT22;5038;53.064;8.624;2022-07-22T06:24:29;17.30;99.90
9998;DHT22;5038;53.064;8.624;2022-07-22T06:26:57;17.40;99.90
9998;DHT22;5038;53.064;8.624;2022-07-22T06:29:27;17.40;99.90
9998;DHT22;5038;53.064;8.624;2022-07-22T06:31:55;17.40;99.90
9998;DHT22;5038;53.064;8.624;2022-07-22T06:34:25;17.40;99.90
9998;DHT22;5038;53.064;8.624;2022-07-22T06:37:03;17.50;99.90
9998;DHT22;5038;53.064;8.624;2022-07-22T06:39:33;17.50;99.90
9998;DHT22;5038;53.064;8.624;2022-07-22T06:42:01;17.50;99.90
9998;DHT22;5038;53.064;8.624;2022-07-22T06:44:46;17.60;99.90
9998;DHT22;5038;53.064;8.624;2022-07-22T06:47:24;17.60;99.90
9998;DHT22;5038;53.064;8.624;2022-07-22T06:49:53;17.60;99.90
9998;DHT22;5038;53.064;8.624;2022-07-22T06:52:21;17.60;99.90
9998;DHT22;5038;53.064;8.624;2022-07-22T06:54:49;17.60;99.90
9998;DHT22;5038;53.064;8.624;2022-07-22T06:57:24;17.60;99.90
9998;DHT22;5038;53.064;8.624;2022-07-22T06:59:53;17.60;99.90
9998;DHT22;5038;53.064;8.624;2022-07-22T07:02:24;17.60;99.90
9998;DHT22;5038;53.064;8.624;2022-07-22T07:04:52;17.70;99.90
9998;DHT22;5038;53.064;8.624;2022-07-22T07:07:21;17.70;99.90
9998;DHT22;5038;53.064;8.624;2022-07-22T07:09:55;17.70;99.90
9998;DHT22;5038;53.064;8.624;2022-07-22T07:12:49;17.70;99.90
9998;DHT22;5038;53.064;8.624;2022-07-22T07:15:23;17.80;99.90
9998;DHT22;5038;53.064;8.624;2022-07-22T07:18:01;17.70;99.90
9998;DHT22;5038;53.064;8.624;2022-07-22T07:20:29;17.70;99.90
9998;DHT22;5038;53.064;8.624;2022-07-22T07:23:00;17.70;99.90
9998;DHT22;5038;53.064;8.624;2022-07-22T07:25:33;17.70;99.90
9998;DHT22;5038;53.064;8.624;2022-07-22T07:28:02;17.70;99.90
9998;DHT22;5038;53.064;8.624;2022-07-22T07:31:02;17.70;99.90
9998;DHT22;5038;53.064;8.624;2022-07-22T07:33:31;17.70;99.90
9998;DHT22;5038;53.064;8.624;2022-07-22T07:36:00;17.70;99.90
9998;DHT22;5038;53.064;8.624;2022-07-22T07:38:36;17.80;99.90
9998;DHT22;5038;53.064;8.624;2022-07-22T07:41:10;17.80;99.90
9998;DHT22;5038;53.064;8.624;2022-07-22T07:43:39;17.80;99.90
9998;DHT22;5038;53.064;8.624;2022-07-22T07:46:09;17.90;99.90
9998;DHT22;5038;53.064;8.624;2022-07-22T07:48:39;17.90;99.90
9998;DHT22;5038;53.064;8.624;2022-07-22T07:51:07;18.00;99.90
9998;DHT22;5038;53.064;8.624;2022-07-22T07:53:36;18.10;99.90
9998;DHT22;5038;53.064;8.624;2022-07-22T07:56:05;18.10;99.90
9998;DHT22;5038;53.064;8.624;2022-07-22T07:58:34;18.20;99.90
9998;DHT22;5038;53.064;8.624;2022-07-22T08:01:06;18.30;99.90
9998;DHT22;5038;53.064;8.624;2022-07-22T08:03:37;18.30;99.90
9998;DHT22;5038;53.064;8.624;2022-07-22T08:06:06;18.30;99.90
9998;DHT22;5038;53.064;8.624;2022-07-22T08:08:35;18.40;99.90
9998;DHT22;5038;53.064;8.624;2022-07-22T08:11:10;18.40;99.90
9998;DHT22;5038;53.064;8.624;2022-07-22T08:14:08;18.40;99.90
9998;DHT22;5038;53.064;8.624;2022-07-22T08:16:54;18.40;99.90
9998;DHT22;5038;53.064;8.624;2022-07-22T08:19:24;18.40;99.90
9998;DHT22;5038;53.064;8.624;2022-07-22T08:21:53;18.40;99.90
9998;DHT22;5038;53.064;8.624;2022-07-22T08:24:30;18.40;99.90
9998;DHT22;5038;53.064;8.624;2022-07-22T08:27:06;18.50;99.90
9998;DHT22;5038;53.064;8.624;2022-07-22T08:29:34;18.40;99.90
9998;DHT22;5038;53.064;8.624;2022-07-22T08:32:03;18.50;99.90
9998;DHT22;5038;53.064;8.624;2022-07-22T08:34:33;18.50;99.90
9998;DHT22;5038;53.064;8.624;2022-07-22T08:37:01;18.50;99.90
9998;DHT22;5038;53.064;8.624;2022-07-22T08:39:29;18.50;99.90
9998;DHT22;5038;53.064;8.624;2022-07-22T08:41:57;18.60;99.90
9998;DHT22;5038;53.064;8.624;2022-07-22T08:44:29;18.50;99.90
9998;DHT22;5038;53.064;8.624;2022-07-22T08:46:58;18.60;99.90
9998;DHT22;5038;53.064;8.624;2022-07-22T08:50:05;18.60;99.90
9998;DHT22;5038;53.064;8.624;2022-07-22T08:52:50;18.60;99.90
9998;DHT22;5038;53.064;8.624;2022-07-22T08:55:19;18.70;99.90
9998;DHT22;5038;53.064;8.624;2022-07-22T08:57:48;18.80;99.90
9998;DHT22;5038;53.064;8.624;2022-07-22T09:00:19;18.80;99.90
9998;DHT22;5038;53.064;8.624;2022-07-22T09:02:48;18.80;99.90
9998;DHT22;5038;53.064;8.624;2022-07-22T09:05:18;19.00;99.90
9998;DHT22;5038;53.064;8.624;2022-07-22T09:08:07;19.00;99.90
9998;DHT22;5038;53.064;8.624;2022-07-22T09:10:52;19.00;99.90
9998;DHT22;5038;53.064;8.624;2022-07-22T09:13:59;19.10;99.90
9998;DHT22;5038;53.064;8.624;2022-07-22T09:16:44;19.10;99.90
9998;DHT22;5038;53.064;8.624;2022-07-22T09:19:52;19.10;99.90
9998;DHT22;5038;53.064;8.624;2022-07-22T09:22:36;19.10;99.90
9998;DHT22;5038;53.064;8.624;2022-07-22T09:25:27;19.10;99.90
9998;DHT22;5038;53.064;8.624;2022-07-22T09:28:17;19.00;99.90
9998;DHT22;5038;53.064;8.624;2022-07-22T09:31:07;19.00;99.90
9998;DHT22;5038;53.064;8.624;2022-07-22T09:34:00;19.00;99.90
9998;DHT22;5038;53.064;8.624;2022-07-22T09:36:29;19.00;99.90
9998;DHT22;5038;53.064;8.624;2022-07-22T09:39:00;19.00;99.90
9998;DHT22;5038;53.064;8.624;2022-07-22T09:41:28;19.10;99.90
9998;DHT22;5038;53.064;8.624;2022-07-22T09:43:57;19.10;99.90
9998;DHT22;5038;53.064;8.624;2022-07-22T09:46:37;19.10;99.90
9998;DHT22;5038;53.064;8.624;2022-07-22T09:49:31;19.20;99.90
9998;DHT22;5038;53.064;8.624;2022-07-22T09:52:20;19.20;99.90
9998;DHT22;5038;53.064;8.624;2022-07-22T09:55:14;19.20;99.90
9998;DHT22;5038;53.064;8.624;2022-07-22T09:57:46;19.30;99.90
9998;DHT22;5038;53.064;8.624;2022-07-22T10:00:16;19.30;99.90
9998;DHT22;5038;53.064;8.624;2022-07-22T10:02:54;19.30;99.90
9998;DHT22;5038;53.064;8.624;2022-07-22T10:05:24;19.30;99.90
9998;DHT22;5038;53.064;8.624;2022-07-22T10:07:55;19.40;99.90
9998;DHT22;5038;53.064;8.624;2022-07-22T10:10:26;19.40;99.90
9998;DHT22;5038;53.064;8.624;2022-07-22T10:12:58;19.50;99.90
9998;DHT22;5038;53.064;8.624;2022-07-22T10:15:28;19.50;99.90
9998;DHT22;5038;53.064;8.624;2022-07-22T10:18:04;19.50;99.90
9998;DHT22;5038;53.064;8.624;2022-07-22T10:20:36;19.50;99.90
9998;DHT22;5038;53.064;8.624;2022-07-22T10:23:05;19.50;99.90
9998;DHT22;5038;53.064;8.624;2022-07-22T10:25:56;19.50;99.90
9998;DHT22;5038;53.064;8.624;2022-07-22T10:28:29;19.50;99.90
9998;DHT22;5038;53.064;8.624;2022-07-22T10:31:17;19.50;99.90
9998;DHT22;5038;53.064;8.624;2022-07-22T10:33:49;19.50;99.90
9998;DHT22;5038;53.064;8.624;2022-07-22T10:36:31;19.50;99.90
9998;DHT22;5038;53.064;8.624;2022-07-22T10:39:05;19.50;99.90
9998;DHT22;5038;53.064;8.624;2022-07-22T10:41:37;19.50;99.90
9998;DHT22;5038;53.064;8.624;2022-07-22T10:44:05;19.50;99.90
9998;DHT22;5038;53.064;8.624;2022-07-22T10:46:52;19.50;99.90
9998;DHT22;5038;53.064;8.624;2022-07-22T10:49:23;19.50;99.90
9998;DHT22;5038;53.064;8.624;2022-07-22T10:52:12;19.50;99.90
9998;DHT22;5038;53.064;8.624;2022-07-22T10:55:18;19.50;99.90
9998;DHT22;5038;53.064;8.624;2022-07-22T10:57:48;19.50;99.90
9998;DHT22;5038;53.064;8.624;2022-07-22T11:00:16;19.50;99.90
9998;DHT22;5038;53.064;8.624;2022-07-22T11:02:45;19.50;99.90
9998;DHT22;5038;53.064;8.624;2022-07-22T11:05:14;19.60;99.90
9998;DHT22;5038;53.064;8.624;2022-07-22T11:07:43;19.60;99.90
9998;DHT22;5038;53.064;8.624;2022-07-22T11:10:13;19.70;99.90
9998;DHT22;5038;53.064;8.624;2022-07-22T11:12:49;19.80;99.90
9998;DHT22;5038;53.064;8.624;2022-07-22T11:15:17;19.90;99.90
9998;DHT22;5038;53.064;8.624;2022-07-22T11:17:46;19.90;99.90
9998;DHT22;5038;53.064;8.624;2022-07-22T11:20:14;20.00;99.90
9998;DHT22;5038;53.064;8.624;2022-07-22T11:22:46;20.00;99.90
9998;DHT22;5038;53.064;8.624;2022-07-22T11:25:16;20.00;99.90
9998;DHT22;5038;53.064;8.624;2022-07-22T11:27:50;20.00;99.90
9998;DHT22;5038;53.064;8.624;2022-07-22T11:30:19;20.10;99.90
9998;DHT22;5038;53.064;8.624;2022-07-22T11:32:48;20.00;99.90
9998;DHT22;5038;53.064;8.624;2022-07-22T11:35:16;20.00;99.90
9998;DHT22;5038;53.064;8.624;2022-07-22T11:37:55;20.00;99.90
9998;DHT22;5038;53.064;8.624;2022-07-22T11:40:23;20.00;99.90
9998;DHT22;5038;53.064;8.624;2022-07-22T11:43:04;20.00;99.90
9998;DHT22;5038;53.064;8.624;2022-07-22T11:45:32;20.00;99.90
9998;DHT22;5038;53.064;8.624;2022-07-22T11:48:08;20.00;99.90
9998;DHT22;5038;53.064;8.624;2022-07-22T11:50:36;20.00;99.90
9998;DHT22;5038;53.064;8.624;2022-07-22T11:53:05;20.00;99.90
9998;DHT22;5038;53.064;8.624;2022-07-22T11:55:34;20.00;99.90
9998;DHT22;5038;53.064;8.624;2022-07-22T11:58:03;20.10;99.90
9998;DHT22;5038;53.064;8.624;2022-07-22T12:00:31;20.10;99.90
9998;DHT22;5038;53.064;8.624;2022-07-22T12:03:00;20.10;99.90
9998;DHT22;5038;53.064;8.624;2022-07-22T12:05:31;20.20;99.90
9998;DHT22;5038;53.064;8.624;2022-07-22T12:08:00;20.30;99.90
9998;DHT22;5038;53.064;8.624;2022-07-22T12:10:29;20.50;99.90
9998;DHT22;5038;53.064;8.624;2022-07-22T12:12:57;20.60;99.90
9998;DHT22;5038;53.064;8.624;2022-07-22T12:15:27;20.60;99.90
9998;DHT22;5038;53.064;8.624;2022-07-22T12:18:20;20.70;99.90
9998;DHT22;5038;53.064;8.624;2022-07-22T12:20:50;20.80;99.90
9998;DHT22;5038;53.064;8.624;2022-07-22T12:23:21;20.90;99.90
9998;DHT22;5038;53.064;8.624;2022-07-22T12:25:54;21.00;99.90
9998;DHT22;5038;53.064;8.624;2022-07-22T12:28:23;21.10;99.90
9998;DHT22;5038;53.064;8.624;2022-07-22T12:30:55;21.10;99.90
9998;DHT22;5038;53.064;8.624;2022-07-22T12:33:23;21.00;99.90
9998;DHT22;5038;53.064;8.624;2022-07-22T12:36:00;21.00;99.90
9998;DHT22;5038;53.064;8.624;2022-07-22T12:38:28;21.00;99.90
9998;DHT22;5038;53.064;8.624;2022-07-22T12:41:25;20.90;99.90
9998;DHT22;5038;53.064;8.624;2022-07-22T12:43:56;20.90;99.90
9998;DHT22;5038;53.064;8.624;2022-07-22T12:46:26;20.90;99.90
9998;DHT22;5038;53.064;8.624;2022-07-22T12:48:54;20.90;99.90
9998;DHT22;5038;53.064;8.624;2022-07-22T12:51:28;20.90;99.90
9998;DHT22;5038;53.064;8.624;2022-07-22T12:53:56;20.90;99.90
9998;DHT22;5038;53.064;8.624;2022-07-22T12:56:26;20.90;99.90
9998;DHT22;5038;53.064;8.624;2022-07-22T12:59:01;20.90;99.90
9998;DHT22;5038;53.064;8.624;2022-07-22T13:01:30;20.90;99.90
9998;DHT22;5038;53.064;8.624;2022-07-22T13:03:58;20.90;99.90
9998;DHT22;5038;53.064;8.624;2022-07-22T13:06:27;20.80;99.90
9998;DHT22;5038;53.064;8.624;2022-07-22T13:08:55;20.80;99.90
9998;DHT22;5038;53.064;8.624;2022-07-22T13:11:24;20.80;99.90
9998;DHT22;5038;53.064;8.624;2022-07-22T13:13:52;20.70;99.90
9998;DHT22;5038;53.064;8.624;2022-07-22T13:16:21;20.70;99.90
9998;DHT22;5038;53.064;8.624;2022-07-22T13:18:51;20.60;99.90
9998;DHT22;5038;53.064;8.624;2022-07-22T13:21:19;20.60;99.90
9998;DHT22;5038;53.064;8.624;2022-07-22T13:23:48;20.60;99.90
9998;DHT22;5038;53.064;8.624;2022-07-22T13:26:16;20.70;99.90
9998;DHT22;5038;53.064;8.624;2022-07-22T13:28:44;20.70;99.90
9998;DHT22;5038;53.064;8.624;2022-07-22T13:31:12;20.80;99.90
9998;DHT22;5038;53.064;8.624;2022-07-22T13:33:41;20.80;99.90
9998;DHT22;5038;53.064;8.624;2022-07-22T13:36:10;20.90;99.90
9998;DHT22;5038;53.064;8.624;2022-07-22T13:38:39;20.90;99.90
9998;DHT22;5038;53.064;8.624;2022-07-22T13:41:07;21.00;99.90
9998;DHT22;5038;53.064;8.624;2022-07-22T13:43:44;21.00;99.90
9998;DHT22;5038;53.064;8.624;2022-07-22T13:46:12;21.10;99.90
9998;DHT22;5038;53.064;8.624;2022-07-22T13:48:41;21.10;99.90
9998;DHT22;5038;53.064;8.624;2022-07-22T13:51:11;21.00;99.90
9998;DHT22;5038;53.064;8.624;2022-07-22T13:53:39;21.00;99.90
9998;DHT22;5038;53.064;8.624;2022-07-22T13:56:09;21.00;99.90
9998;DHT22;5038;53.064;8.624;2022-07-22T13:58:39;20.90;99.90
9998;DHT22;5038;53.064;8.624;2022-07-22T14:01:08;20.90;99.90
9998;DHT22;5038;53.064;8.624;2022-07-22T14:03:37;20.80;99.90
9998;DHT22;5038;53.064;8.624;2022-07-22T14:06:06;20.80;99.90
9998;DHT22;5038;53.064;8.624;2022-07-22T14:08:37;20.70;99.90
9998;DHT22;5038;53.064;8.624;2022-07-22T14:11:06;20.70;99.90
9998;DHT22;5038;53.064;8.624;2022-07-22T14:13:35;20.70;99.90
9998;DHT22;5038;53.064;8.624;2022-07-22T14:16:06;20.70;99.90
9998;DHT22;5038;53.064;8.624;2022-07-22T14:19:15;20.70;99.90
9998;DHT22;5038;53.064;8.624;2022-07-22T14:21:45;20.60;99.90
9998;DHT22;5038;53.064;8.624;2022-07-22T14:24:14;20.60;99.90
9998;DHT22;5038;53.064;8.624;2022-07-22T14:26:43;20.60;99.90
9998;DHT22;5038;53.064;8.624;2022-07-22T14:29:11;20.60;99.90
9998;DHT22;5038;53.064;8.624;2022-07-22T14:31:39;20.70;99.90
9998;DHT22;5038;53.064;8.624;2022-07-22T14:34:08;20.60;99.90
9998;DHT22;5038;53.064;8.624;2022-07-22T14:36:36;20.60;99.90
9998;DHT22;5038;53.064;8.624;2022-07-22T14:39:04;20.60;99.90
9998;DHT22;5038;53.064;8.624;2022-07-22T14:41:34;20.60;99.90
9998;DHT22;5038;53.064;8.624;2022-07-22T14:44:02;20.60;99.90
9998;DHT22;5038;53.064;8.624;2022-07-22T14:46:31;20.60;99.90
9998;DHT22;5038;53.064;8.624;2022-07-22T14:48:59;20.70;99.90
9998;DHT22;5038;53.064;8.624;2022-07-22T14:51:27;20.70;99.90
9998;DHT22;5038;53.064;8.624;2022-07-22T14:53:56;20.70;99.90
9998;DHT22;5038;53.064;8.624;2022-07-22T14:56:25;20.80;99.90
9998;DHT22;5038;53.064;8.624;2022-07-22T14:58:54;20.80;99.90
9998;DHT22;5038;53.064;8.624;2022-07-22T15:01:22;20.70;99.90
9998;DHT22;5038;53.064;8.624;2022-07-22T15:03:53;20.70;99.90
9998;DHT22;5038;53.064;8.624;2022-07-22T15:06:22;20.70;99.90
9998;DHT22;5038;53.064;8.624;2022-07-22T15:08:50;20.70;99.90
9998;DHT22;5038;53.064;8.624;2022-07-22T15:11:18;20.60;99.90
9998;DHT22;5038;53.064;8.624;2022-07-22T15:13:47;20.60;99.90
9998;DHT22;5038;53.064;8.624;2022-07-22T15:16:16;20.60;99.90
9998;DHT22;5038;53.064;8.624;2022-07-22T15:18:45;20.50;99.90
9998;DHT22;5038;53.064;8.624;2022-07-22T15:21:13;20.50;99.90
9998;DHT22;5038;53.064;8.624;2022-07-22T15:23:43;20.50;99.90
9998;DHT22;5038;53.064;8.624;2022-07-22T15:26:11;20.50;99.90
9998;DHT22;5038;53.064;8.624;2022-07-22T15:28:39;20.50;99.90
9998;DHT22;5038;53.064;8.624;2022-07-22T15:31:09;20.50;99.90
9998;DHT22;5038;53.064;8.624;2022-07-22T15:33:39;20.50;99.90
9998;DHT22;5038;53.064;8.624;2022-07-22T15:36:08;20.50;99.90
9998;DHT22;5038;53.064;8.624;2022-07-22T15:38:37;20.40;99.90
9998;DHT22;5038;53.064;8.624;2022-07-22T15:41:06;20.40;99.90
9998;DHT22;5038;53.064;8.624;2022-07-22T15:43:35;20.40;99.90
9998;DHT22;5038;53.064;8.624;2022-07-22T15:46:06;20.40;99.90
9998;DHT22;5038;53.064;8.624;2022-07-22T15:48:35;20.40;99.90
9998;DHT22;5038;53.064;8.624;2022-07-22T15:51:08;20.30;99.90
9998;DHT22;5038;53.064;8.624;2022-07-22T15:53:37;20.30;99.90
9998;DHT22;5038;53.064;8.624;2022-07-22T15:56:06;20.30;99.90
9998;DHT22;5038;53.064;8.624;2022-07-22T15:58:34;20.30;99.90
9998;DHT22;5038;53.064;8.624;2022-07-22T16:01:39;20.30;99.90
9998;DHT22;5038;53.064;8.624;2022-07-22T16:04:08;20.30;99.90
9998;DHT22;5038;53.064;8.624;2022-07-22T16:06:37;20.30;99.90
9998;DHT22;5038;53.064;8.624;2022-07-22T16:09:06;20.30;99.90
9998;DHT22;5038;53.064;8.624;2022-07-22T16:11:35;20.30;99.90
9998;DHT22;5038;53.064;8.624;2022-07-22T16:14:04;20.20;99.90
9998;DHT22;5038;53.064;8.624;2022-07-22T16:16:32;20.30;99.90
9998;DHT22;5038;53.064;8.624;2022-07-22T16:19:00;20.20;99.90
9998;DHT22;5038;53.064;8.624;2022-07-22T16:21:29;20.20;99.90
9998;DHT22;5038;53.064;8.624;2022-07-22T16:23:58;20.20;99.90
9998;DHT22;5038;53.064;8.624;2022-07-22T16:26:26;20.20;99.90
9998;DHT22;5038;53.064;8.624;2022-07-22T16:28:54;20.20;99.90
9998;DHT22;5038;53.064;8.624;2022-07-22T16:31:23;20.20;99.90